sensor_id;sensor_type;location;lat;lon;timestamp;P1;durP1;ratioP1;P2;durP2;ratioP2
19940;SDS011;10132;50.864;5.176;2023-10-31T00:00:28;14.53;;;13.40;;
19940;SDS011;10132;50.864;5.176;2023-10-31T00:02:30;15.33;;;12.20;;
19940;SDS011;10132;50.864;5.176;2023-10-31T00:04:32;16.23;;;14.83;;
19940;SDS011;10132;50.864;5.176;2023-10-31T00:06:34;15.57;;;14.10;;
19940;SDS011;10132;50.864;5.176;2023-10-31T00:08:36;17.43;;;15.67;;
19940;SDS011;10132;50.864;5.176;2023-10-31T00:10:38;21.03;;;17.93;;
19940;SDS011;10132;50.864;5.176;2023-10-31T00:12:46;18.63;;;16.50;;
19940;SDS011;10132;50.864;5.176;2023-10-31T00:14:48;25.90;;;20.03;;
19940;SDS011;10132;50.864;5.176;2023-10-31T00:16:49;22.17;;;18.80;;
19940;SDS011;10132;50.864;5.176;2023-10-31T00:18:51;27.83;;;19.30;;
19940;SDS011;10132;50.864;5.176;2023-10-31T00:20:52;25.73;;;19.67;;
19940;SDS011;10132;50.864;5.176;2023-10-31T00:22:54;27.63;;;18.50;;
19940;SDS011;10132;50.864;5.176;2023-10-31T00:24:56;27.53;;;19.43;;
19940;SDS011;10132;50.864;5.176;2023-10-31T00:26:58;26.70;;;19.17;;
19940;SDS011;10132;50.864;5.176;2023-10-31T00:29:00;29.67;;;21.80;;
19940;SDS011;10132;50.864;5.176;2023-10-31T00:31:03;29.47;;;22.77;;
19940;SDS011;10132;50.864;5.176;2023-10-31T00:33:05;32.60;;;22.00;;
19940;SDS011;10132;50.864;5.176;2023-10-31T00:35:07;32.67;;;25.90;;
19940;SDS011;10132;50.864;5.176;2023-10-31T00:37:12;29.23;;;22.03;;
19940;SDS011;10132;50.864;5.176;2023-10-31T00:39:14;29.70;;;23.23;;
19940;SDS011;10132;50.864;5.176;2023-10-31T00:41:16;30.47;;;24.63;;
19940;SDS011;10132;50.864;5.176;2023-10-31T00:43:18;32.03;;;25.53;;
19940;SDS011;10132;50.864;5.176;2023-10-31T00:45:21;29.27;;;24.83;;
19940;SDS011;10132;50.864;5.176;2023-10-31T00:47:23;34.17;;;23.47;;
19940;SDS011;10132;50.864;5.176;2023-10-31T00:49:25;30.67;;;24.00;;
19940;SDS011;10132;50.864;5.176;2023-10-31T00:51:27;29.97;;;22.73;;
19940;SDS011;10132;50.864;5.176;2023-10-31T00:53:29;29.87;;;25.37;;
19940;SDS011;10132;50.864;5.176;2023-10-31T00:55:30;28.07;;;23.87;;
19940;SDS011;10132;50.864;5.176;2023-10-31T00:57:32;29.43;;;25.80;;
19940;SDS011;10132;50.864;5.176;2023-10-31T00:59:33;31.47;;;24.83;;
19940;SDS011;10132;50.864;5.176;2023-10-31T01:01:36;32.47;;;27.20;;
19940;SDS011;10132;50.864;5.176;2023-10-31T01:03:38;30.33;;;24.43;;
19940;SDS011;10132;50.864;5.176;2023-10-31T01:05:40;26.70;;;22.03;;
19940;SDS011;10132;50.864;5.176;2023-10-31T01:07:42;24.33;;;21.77;;
19940;SDS011;10132;50.864;5.176;2023-10-31T01:09:44;22.83;;;20.27;;
19940;SDS011;10132;50.864;5.176;2023-10-31T01:11:47;23.67;;;21.17;;
19940;SDS011;10132;50.864;5.176;2023-10-31T01:13:49;22.57;;;20.30;;
19940;SDS011;10132;50.864;5.176;2023-10-31T01:15:51;23.67;;;21.23;;
19940;SDS011;10132;50.864;5.176;2023-10-31T01:17:54;19.70;;;17.80;;
19940;SDS011;10132;50.864;5.176;2023-10-31T01:19:56;20.77;;;18.77;;
19940;SDS011;10132;50.864;5.176;2023-10-31T01:21:57;22.27;;;20.27;;
19940;SDS011;10132;50.864;5.176;2023-10-31T01:23:59;23.77;;;21.47;;
19940;SDS011;10132;50.864;5.176;2023-10-31T01:26:01;25.00;;;22.90;;
19940;SDS011;10132;50.864;5.176;2023-10-31T01:28:03;21.30;;;19.43;;
19940;SDS011;10132;50.864;5.176;2023-10-31T01:30:06;18.70;;;17.10;;
19940;SDS011;10132;50.864;5.176;2023-10-31T01:32:08;24.57;;;22.60;;
19940;SDS011;10132;50.864;5.176;2023-10-31T01:34:12;21.53;;;20.03;;
19940;SDS011;10132;50.864;5.176;2023-10-31T01:36:14;11.93;;;10.93;;
19940;SDS011;10132;50.864;5.176;2023-10-31T01:38:16;17.53;;;16.33;;
19940;SDS011;10132;50.864;5.176;2023-10-31T01:40:18;16.07;;;14.83;;
19940;SDS011;10132;50.864;5.176;2023-10-31T01:42:20;19.03;;;17.63;;
19940;SDS011;10132;50.864;5.176;2023-10-31T01:44:22;17.67;;;16.43;;
19940;SDS011;10132;50.864;5.176;2023-10-31T01:46:24;15.43;;;14.33;;
19940;SDS011;10132;50.864;5.176;2023-10-31T01:48:27;12.30;;;11.53;;
19940;SDS011;10132;50.864;5.176;2023-10-31T01:50:31;13.43;;;12.53;;
19940;SDS011;10132;50.864;5.176;2023-10-31T01:52:33;15.90;;;14.70;;
19940;SDS011;10132;50.864;5.176;2023-10-31T01:54:36;16.77;;;15.57;;
19940;SDS011;10132;50.864;5.176;2023-10-31T01:56:38;16.03;;;15.03;;
19940;SDS011;10132;50.864;5.176;2023-10-31T01:58:40;19.40;;;18.00;;
19940;SDS011;10132;50.864;5.176;2023-10-31T02:00:43;16.17;;;15.07;;
19940;SDS011;10132;50.864;5.176;2023-10-31T02:02:46;19.30;;;18.13;;
19940;SDS011;10132;50.864;5.176;2023-10-31T02:04:48;20.07;;;18.67;;
19940;SDS011;10132;50.864;5.176;2023-10-31T02:06:51;17.13;;;16.13;;
19940;SDS011;10132;50.864;5.176;2023-10-31T02:08:53;18.30;;;17.00;;
19940;SDS011;10132;50.864;5.176;2023-10-31T02:10:55;20.90;;;19.63;;
19940;SDS011;10132;50.864;5.176;2023-10-31T02:12:57;13.00;;;12.10;;
19940;SDS011;10132;50.864;5.176;2023-10-31T02:14:59;16.63;;;15.53;;
19940;SDS011;10132;50.864;5.176;2023-10-31T02:17:01;15.27;;;14.17;;
19940;SDS011;10132;50.864;5.176;2023-10-31T02:19:02;20.70;;;19.40;;
19940;SDS011;10132;50.864;5.176;2023-10-31T02:21:05;18.23;;;16.93;;
19940;SDS011;10132;50.864;5.176;2023-10-31T02:23:08;19.97;;;18.57;;
19940;SDS011;10132;50.864;5.176;2023-10-31T02:25:16;18.03;;;16.93;;
19940;SDS011;10132;50.864;5.176;2023-10-31T02:27:18;15.63;;;14.67;;
19940;SDS011;10132;50.864;5.176;2023-10-31T02:29:20;15.57;;;14.40;;
19940;SDS011;10132;50.864;5.176;2023-10-31T02:31:22;18.90;;;17.70;;
19940;SDS011;10132;50.864;5.176;2023-10-31T02:33:24;16.93;;;15.73;;
19940;SDS011;10132;50.864;5.176;2023-10-31T02:35:26;23.77;;;22.27;;
19940;SDS011;10132;50.864;5.176;2023-10-31T02:37:28;21.20;;;19.90;;
19940;SDS011;10132;50.864;5.176;2023-10-31T02:39:32;20.40;;;18.90;;
19940;SDS011;10132;50.864;5.176;2023-10-31T02:41:33;16.53;;;15.43;;
19940;SDS011;10132;50.864;5.176;2023-10-31T02:43:35;16.47;;;15.30;;
19940;SDS011;10132;50.864;5.176;2023-10-31T02:45:37;16.00;;;15.00;;
19940;SDS011;10132;50.864;5.176;2023-10-31T02:47:39;17.23;;;15.93;;
19940;SDS011;10132;50.864;5.176;2023-10-31T02:49:41;15.27;;;14.20;;
19940;SDS011;10132;50.864;5.176;2023-10-31T02:51:43;14.23;;;13.03;;
19940;SDS011;10132;50.864;5.176;2023-10-31T02:53:45;13.43;;;12.43;;
19940;SDS011;10132;50.864;5.176;2023-10-31T02:55:48;14.43;;;13.43;;
19940;SDS011;10132;50.864;5.176;2023-10-31T02:57:50;15.03;;;14.03;;
19940;SDS011;10132;50.864;5.176;2023-10-31T02:59:52;14.10;;;13.17;;
19940;SDS011;10132;50.864;5.176;2023-10-31T03:01:56;15.40;;;14.13;;
19940;SDS011;10132;50.864;5.176;2023-10-31T03:03:58;14.30;;;13.27;;
19940;SDS011;10132;50.864;5.176;2023-10-31T03:06:00;16.03;;;14.63;;
19940;SDS011;10132;50.864;5.176;2023-10-31T03:08:01;16.67;;;15.50;;
19940;SDS011;10132;50.864;5.176;2023-10-31T03:10:04;13.43;;;12.43;;
19940;SDS011;10132;50.864;5.176;2023-10-31T03:12:08;11.43;;;10.47;;
19940;SDS011;10132;50.864;5.176;2023-10-31T03:14:09;11.30;;;10.37;;
19940;SDS011;10132;50.864;5.176;2023-10-31T03:16:11;12.03;;;11.03;;
19940;SDS011;10132;50.864;5.176;2023-10-31T03:18:14;13.20;;;11.93;;
19940;SDS011;10132;50.864;5.176;2023-10-31T03:20:16;14.70;;;13.70;;
19940;SDS011;10132;50.864;5.176;2023-10-31T03:22:18;15.57;;;14.47;;
19940;SDS011;10132;50.864;5.176;2023-10-31T03:24:20;15.30;;;14.00;;
19940;SDS011;10132;50.864;5.176;2023-10-31T03:26:22;14.77;;;13.47;;
19940;SDS011;10132;50.864;5.176;2023-10-31T03:28:26;15.63;;;14.43;;
19940;SDS011;10132;50.864;5.176;2023-10-31T03:30:27;14.83;;;13.83;;
19940;SDS011;10132;50.864;5.176;2023-10-31T03:32:29;17.63;;;16.43;;
19940;SDS011;10132;50.864;5.176;2023-10-31T03:34:31;18.53;;;17.23;;
19940;SDS011;10132;50.864;5.176;2023-10-31T03:36:33;19.33;;;17.87;;
19940;SDS011;10132;50.864;5.176;2023-10-31T03:38:35;18.83;;;17.53;;
19940;SDS011;10132;50.864;5.176;2023-10-31T03:40:38;19.07;;;17.77;;
19940;SDS011;10132;50.864;5.176;2023-10-31T03:42:39;18.73;;;17.50;;
19940;SDS011;10132;50.864;5.176;2023-10-31T03:44:43;19.73;;;18.33;;
19940;SDS011;10132;50.864;5.176;2023-10-31T03:46:45;15.23;;;14.03;;
19940;SDS011;10132;50.864;5.176;2023-10-31T03:48:47;17.60;;;16.40;;
19940;SDS011;10132;50.864;5.176;2023-10-31T03:50:48;16.47;;;15.17;;
19940;SDS011;10132;50.864;5.176;2023-10-31T03:52:51;19.13;;;17.73;;
19940;SDS011;10132;50.864;5.176;2023-10-31T03:54:53;13.73;;;12.50;;
19940;SDS011;10132;50.864;5.176;2023-10-31T03:56:55;18.23;;;16.77;;
19940;SDS011;10132;50.864;5.176;2023-10-31T03:58:57;11.87;;;10.93;;
19940;SDS011;10132;50.864;5.176;2023-10-31T04:00:59;24.33;;;22.33;;
19940;SDS011;10132;50.864;5.176;2023-10-31T04:03:01;9.53;;;8.63;;
19940;SDS011;10132;50.864;5.176;2023-10-31T04:05:03;9.53;;;8.53;;
19940;SDS011;10132;50.864;5.176;2023-10-31T04:07:06;9.27;;;8.37;;
19940;SDS011;10132;50.864;5.176;2023-10-31T04:09:08;9.33;;;8.63;;
19940;SDS011;10132;50.864;5.176;2023-10-31T04:11:11;10.53;;;9.70;;
19940;SDS011;10132;50.864;5.176;2023-10-31T04:13:13;9.40;;;8.60;;
19940;SDS011;10132;50.864;5.176;2023-10-31T04:15:14;8.70;;;7.90;;
19940;SDS011;10132;50.864;5.176;2023-10-31T04:17:18;8.27;;;7.57;;
19940;SDS011;10132;50.864;5.176;2023-10-31T04:19:20;8.53;;;7.93;;
19940;SDS011;10132;50.864;5.176;2023-10-31T04:21:22;6.87;;;6.27;;
19940;SDS011;10132;50.864;5.176;2023-10-31T04:23:24;9.63;;;8.93;;
19940;SDS011;10132;50.864;5.176;2023-10-31T04:25:26;7.57;;;6.80;;
19940;SDS011;10132;50.864;5.176;2023-10-31T04:27:29;7.40;;;6.80;;
19940;SDS011;10132;50.864;5.176;2023-10-31T04:29:31;7.97;;;7.37;;
19940;SDS011;10132;50.864;5.176;2023-10-31T04:31:33;11.73;;;10.93;;
19940;SDS011;10132;50.864;5.176;2023-10-31T04:33:36;9.67;;;8.77;;
19940;SDS011;10132;50.864;5.176;2023-10-31T04:35:37;9.07;;;8.27;;
19940;SDS011;10132;50.864;5.176;2023-10-31T04:37:40;9.43;;;8.73;;
19940;SDS011;10132;50.864;5.176;2023-10-31T04:39:42;9.40;;;8.63;;
19940;SDS011;10132;50.864;5.176;2023-10-31T04:41:44;9.20;;;8.57;;
19940;SDS011;10132;50.864;5.176;2023-10-31T04:43:46;15.53;;;14.43;;
19940;SDS011;10132;50.864;5.176;2023-10-31T04:45:47;11.33;;;10.47;;
19940;SDS011;10132;50.864;5.176;2023-10-31T04:47:49;11.00;;;10.20;;
19940;SDS011;10132;50.864;5.176;2023-10-31T04:49:52;13.33;;;12.33;;
19940;SDS011;10132;50.864;5.176;2023-10-31T04:51:54;11.93;;;11.10;;
19940;SDS011;10132;50.864;5.176;2023-10-31T04:53:56;10.63;;;9.83;;
19940;SDS011;10132;50.864;5.176;2023-10-31T04:55:58;10.53;;;9.73;;
19940;SDS011;10132;50.864;5.176;2023-10-31T04:58:00;12.23;;;11.33;;
19940;SDS011;10132;50.864;5.176;2023-10-31T05:00:03;12.17;;;11.37;;
19940;SDS011;10132;50.864;5.176;2023-10-31T05:02:08;15.20;;;14.00;;
19940;SDS011;10132;50.864;5.176;2023-10-31T05:04:10;12.93;;;12.03;;
19940;SDS011;10132;50.864;5.176;2023-10-31T05:06:18;18.53;;;17.33;;
19940;SDS011;10132;50.864;5.176;2023-10-31T05:08:20;14.60;;;13.70;;
19940;SDS011;10132;50.864;5.176;2023-10-31T05:10:22;14.90;;;13.70;;
19940;SDS011;10132;50.864;5.176;2023-10-31T05:12:24;16.70;;;15.30;;
19940;SDS011;10132;50.864;5.176;2023-10-31T05:14:25;14.10;;;13.03;;
19940;SDS011;10132;50.864;5.176;2023-10-31T05:16:27;14.83;;;13.73;;
19940;SDS011;10132;50.864;5.176;2023-10-31T05:18:29;15.17;;;14.07;;
19940;SDS011;10132;50.864;5.176;2023-10-31T05:20:31;14.03;;;12.67;;
19940;SDS011;10132;50.864;5.176;2023-10-31T05:22:35;16.50;;;15.20;;
19940;SDS011;10132;50.864;5.176;2023-10-31T05:24:37;15.30;;;14.13;;
19940;SDS011;10132;50.864;5.176;2023-10-31T05:26:39;15.47;;;14.37;;
19940;SDS011;10132;50.864;5.176;2023-10-31T05:28:42;17.20;;;15.77;;
19940;SDS011;10132;50.864;5.176;2023-10-31T05:30:44;15.87;;;14.37;;
19940;SDS011;10132;50.864;5.176;2023-10-31T05:32:47;16.23;;;14.93;;
19940;SDS011;10132;50.864;5.176;2023-10-31T05:34:50;18.73;;;17.07;;
19940;SDS011;10132;50.864;5.176;2023-10-31T05:36:52;17.70;;;16.30;;
19940;SDS011;10132;50.864;5.176;2023-10-31T05:38:55;24.40;;;22.50;;
19940;SDS011;10132;50.864;5.176;2023-10-31T05:40:57;21.47;;;19.93;;
19940;SDS011;10132;50.864;5.176;2023-10-31T05:42:59;16.20;;;15.00;;
19940;SDS011;10132;50.864;5.176;2023-10-31T05:45:01;16.07;;;14.93;;
19940;SDS011;10132;50.864;5.176;2023-10-31T05:47:04;17.33;;;16.13;;
19940;SDS011;10132;50.864;5.176;2023-10-31T05:49:06;14.97;;;13.87;;
19940;SDS011;10132;50.864;5.176;2023-10-31T05:51:12;15.63;;;14.53;;
19940;SDS011;10132;50.864;5.176;2023-10-31T05:53:14;15.97;;;14.77;;
19940;SDS011;10132;50.864;5.176;2023-10-31T05:55:18;15.47;;;14.27;;
19940;SDS011;10132;50.864;5.176;2023-10-31T05:57:19;17.30;;;15.80;;
19940;SDS011;10132;50.864;5.176;2023-10-31T05:59:21;15.07;;;13.87;;
19940;SDS011;10132;50.864;5.176;2023-10-31T06:01:23;14.97;;;13.73;;
19940;SDS011;10132;50.864;5.176;2023-10-31T06:03:25;15.67;;;14.47;;
19940;SDS011;10132;50.864;5.176;2023-10-31T06:05:26;23.20;;;21.60;;
19940;SDS011;10132;50.864;5.176;2023-10-31T06:07:28;18.03;;;16.63;;
19940;SDS011;10132;50.864;5.176;2023-10-31T06:09:30;16.23;;;14.93;;
19940;SDS011;10132;50.864;5.176;2023-10-31T06:11:34;18.33;;;16.93;;
19940;SDS011;10132;50.864;5.176;2023-10-31T06:13:36;22.43;;;20.73;;
19940;SDS011;10132;50.864;5.176;2023-10-31T06:15:38;26.50;;;24.67;;
19940;SDS011;10132;50.864;5.176;2023-10-31T06:17:40;19.83;;;18.30;;
19940;SDS011;10132;50.864;5.176;2023-10-31T06:19:42;19.77;;;18.33;;
19940;SDS011;10132;50.864;5.176;2023-10-31T06:21:45;18.53;;;16.93;;
19940;SDS011;10132;50.864;5.176;2023-10-31T06:23:48;18.60;;;17.10;;
19940;SDS011;10132;50.864;5.176;2023-10-31T06:25:50;18.50;;;16.93;;
19940;SDS011;10132;50.864;5.176;2023-10-31T06:27:53;21.70;;;20.17;;
19940;SDS011;10132;50.864;5.176;2023-10-31T06:29:55;19.87;;;18.27;;
19940;SDS011;10132;50.864;5.176;2023-10-31T06:31:56;17.27;;;15.90;;
19940;SDS011;10132;50.864;5.176;2023-10-31T06:33:58;19.47;;;17.97;;
19940;SDS011;10132;50.864;5.176;2023-10-31T06:36:01;19.07;;;17.67;;
19940;SDS011;10132;50.864;5.176;2023-10-31T06:38:02;19.70;;;18.27;;
19940;SDS011;10132;50.864;5.176;2023-10-31T06:40:05;21.63;;;20.03;;
19940;SDS011;10132;50.864;5.176;2023-10-31T06:42:07;18.83;;;17.43;;
19940;SDS011;10132;50.864;5.176;2023-10-31T06:44:11;19.17;;;17.37;;
19940;SDS011;10132;50.864;5.176;2023-10-31T06:46:13;18.03;;;16.63;;
19940;SDS011;10132;50.864;5.176;2023-10-31T06:48:16;15.20;;;13.90;;
19940;SDS011;10132;50.864;5.176;2023-10-31T06:50:18;13.67;;;12.47;;
19940;SDS011;10132;50.864;5.176;2023-10-31T06:52:20;14.47;;;13.17;;
19940;SDS011;10132;50.864;5.176;2023-10-31T06:54:21;14.90;;;13.60;;
19940;SDS011;10132;50.864;5.176;2023-10-31T06:56:23;13.70;;;12.50;;
19940;SDS011;10132;50.864;5.176;2023-10-31T06:58:25;17.60;;;15.90;;
19940;SDS011;10132;50.864;5.176;2023-10-31T07:00:28;13.37;;;12.13;;
19940;SDS011;10132;50.864;5.176;2023-10-31T07:02:31;14.50;;;13.30;;
19940;SDS011;10132;50.864;5.176;2023-10-31T07:04:33;13.60;;;12.40;;
19940;SDS011;10132;50.864;5.176;2023-10-31T07:06:35;12.73;;;11.63;;
19940;SDS011;10132;50.864;5.176;2023-10-31T07:08:36;12.63;;;11.40;;
19940;SDS011;10132;50.864;5.176;2023-10-31T07:10:38;14.37;;;13.17;;
19940;SDS011;10132;50.864;5.176;2023-10-31T07:12:40;11.53;;;10.43;;
19940;SDS011;10132;50.864;5.176;2023-10-31T07:14:42;11.00;;;10.00;;
19940;SDS011;10132;50.864;5.176;2023-10-31T07:16:46;11.60;;;10.40;;
19940;SDS011;10132;50.864;5.176;2023-10-31T07:18:49;10.77;;;9.77;;
19940;SDS011;10132;50.864;5.176;2023-10-31T07:20:50;11.87;;;10.77;;
19940;SDS011;10132;50.864;5.176;2023-10-31T07:22:52;10.77;;;9.77;;
19940;SDS011;10132;50.864;5.176;2023-10-31T07:24:54;10.63;;;9.63;;
19940;SDS011;10132;50.864;5.176;2023-10-31T07:26:57;12.17;;;11.07;;
19940;SDS011;10132;50.864;5.176;2023-10-31T07:28:59;12.30;;;11.40;;
19940;SDS011;10132;50.864;5.176;2023-10-31T07:31:01;11.70;;;10.80;;
19940;SDS011;10132;50.864;5.176;2023-10-31T07:33:05;8.50;;;7.70;;
19940;SDS011;10132;50.864;5.176;2023-10-31T07:35:07;8.27;;;7.57;;
19940;SDS011;10132;50.864;5.176;2023-10-31T07:37:08;8.90;;;8.10;;
19940;SDS011;10132;50.864;5.176;2023-10-31T07:39:10;9.40;;;8.50;;
19940;SDS011;10132;50.864;5.176;2023-10-31T07:41:13;9.03;;;7.23;;
19940;SDS011;10132;50.864;5.176;2023-10-31T07:43:15;8.60;;;7.90;;
19940;SDS011;10132;50.864;5.176;2023-10-31T07:45:17;8.07;;;7.27;;
19940;SDS011;10132;50.864;5.176;2023-10-31T07:47:19;9.13;;;7.63;;
19940;SDS011;10132;50.864;5.176;2023-10-31T07:49:22;8.53;;;7.73;;
19940;SDS011;10132;50.864;5.176;2023-10-31T07:51:24;8.00;;;7.20;;
19940;SDS011;10132;50.864;5.176;2023-10-31T07:53:26;9.33;;;7.93;;
19940;SDS011;10132;50.864;5.176;2023-10-31T07:55:28;8.87;;;8.07;;
19940;SDS011;10132;50.864;5.176;2023-10-31T07:57:30;9.83;;;7.80;;
19940;SDS011;10132;50.864;5.176;2023-10-31T07:59:32;8.53;;;7.73;;
19940;SDS011;10132;50.864;5.176;2023-10-31T08:01:35;11.07;;;8.43;;
19940;SDS011;10132;50.864;5.176;2023-10-31T08:03:36;8.17;;;7.23;;
19940;SDS011;10132;50.864;5.176;2023-10-31T08:05:40;10.77;;;8.23;;
19940;SDS011;10132;50.864;5.176;2023-10-31T08:07:42;11.20;;;8.33;;
19940;SDS011;10132;50.864;5.176;2023-10-31T08:09:44;11.43;;;8.77;;
19940;SDS011;10132;50.864;5.176;2023-10-31T08:11:46;8.67;;;7.77;;
19940;SDS011;10132;50.864;5.176;2023-10-31T08:13:49;10.00;;;7.80;;
19940;SDS011;10132;50.864;5.176;2023-10-31T08:15:51;8.57;;;7.67;;
19940;SDS011;10132;50.864;5.176;2023-10-31T08:17:52;7.97;;;7.27;;
19940;SDS011;10132;50.864;5.176;2023-10-31T08:19:54;9.90;;;7.07;;
19940;SDS011;10132;50.864;5.176;2023-10-31T08:21:57;7.90;;;7.10;;
19940;SDS011;10132;50.864;5.176;2023-10-31T08:23:59;8.03;;;7.37;;
19940;SDS011;10132;50.864;5.176;2023-10-31T08:26:01;9.37;;;7.30;;
19940;SDS011;10132;50.864;5.176;2023-10-31T08:28:04;9.00;;;6.77;;
19940;SDS011;10132;50.864;5.176;2023-10-31T08:30:06;9.03;;;7.43;;
19940;SDS011;10132;50.864;5.176;2023-10-31T08:32:09;7.23;;;6.53;;
19940;SDS011;10132;50.864;5.176;2023-10-31T08:34:11;9.50;;;7.00;;
19940;SDS011;10132;50.864;5.176;2023-10-31T08:36:13;6.53;;;5.57;;
19940;SDS011;10132;50.864;5.176;2023-10-31T08:38:16;8.03;;;6.70;;
19940;SDS011;10132;50.864;5.176;2023-10-31T08:40:18;7.30;;;6.00;;
19940;SDS011;10132;50.864;5.176;2023-10-31T08:42:20;7.10;;;6.30;;
19940;SDS011;10132;50.864;5.176;2023-10-31T08:44:22;6.83;;;6.13;;
19940;SDS011;10132;50.864;5.176;2023-10-31T08:46:24;9.13;;;6.80;;
19940;SDS011;10132;50.864;5.176;2023-10-31T08:48:26;9.07;;;7.20;;
19940;SDS011;10132;50.864;5.176;2023-10-31T08:50:28;8.53;;;6.80;;
19940;SDS011;10132;50.864;5.176;2023-10-31T08:52:30;8.67;;;6.57;;
19940;SDS011;10132;50.864;5.176;2023-10-31T08:54:33;7.27;;;6.47;;
19940;SDS011;10132;50.864;5.176;2023-10-31T08:56:35;7.37;;;6.03;;
19940;SDS011;10132;50.864;5.176;2023-10-31T08:58:37;8.53;;;6.27;;
19940;SDS011;10132;50.864;5.176;2023-10-31T09:00:41;6.77;;;5.67;;
19940;SDS011;10132;50.864;5.176;2023-10-31T09:02:42;7.07;;;5.80;;
19940;SDS011;10132;50.864;5.176;2023-10-31T09:04:44;6.10;;;5.50;;
19940;SDS011;10132;50.864;5.176;2023-10-31T09:06:46;8.43;;;5.60;;
19940;SDS011;10132;50.864;5.176;2023-10-31T09:08:48;7.50;;;5.23;;
19940;SDS011;10132;50.864;5.176;2023-10-31T09:10:52;7.67;;;4.97;;
19940;SDS011;10132;50.864;5.176;2023-10-31T09:12:54;5.70;;;4.77;;
19940;SDS011;10132;50.864;5.176;2023-10-31T09:14:56;5.63;;;5.13;;
19940;SDS011;10132;50.864;5.176;2023-10-31T09:16:58;8.37;;;4.43;;
19940;SDS011;10132;50.864;5.176;2023-10-31T09:19:00;4.77;;;3.77;;
19940;SDS011;10132;50.864;5.176;2023-10-31T09:21:02;4.47;;;3.83;;
19940;SDS011;10132;50.864;5.176;2023-10-31T09:23:04;6.40;;;4.10;;
19940;SDS011;10132;50.864;5.176;2023-10-31T09:25:06;5.07;;;4.00;;
19940;SDS011;10132;50.864;5.176;2023-10-31T09:27:09;5.70;;;3.90;;
19940;SDS011;10132;50.864;5.176;2023-10-31T09:29:11;7.63;;;4.23;;
19940;SDS011;10132;50.864;5.176;2023-10-31T09:31:13;4.27;;;3.63;;
19940;SDS011;10132;50.864;5.176;2023-10-31T09:33:15;5.23;;;4.13;;
19940;SDS011;10132;50.864;5.176;2023-10-31T09:35:17;6.13;;;3.90;;
19940;SDS011;10132;50.864;5.176;2023-10-31T09:37:18;5.77;;;4.00;;
19940;SDS011;10132;50.864;5.176;2023-10-31T09:39:20;3.93;;;3.63;;
19940;SDS011;10132;50.864;5.176;2023-10-31T09:41:23;3.50;;;3.20;;
19940;SDS011;10132;50.864;5.176;2023-10-31T09:43:26;7.80;;;3.70;;
19940;SDS011;10132;50.864;5.176;2023-10-31T09:45:28;5.63;;;3.63;;
19940;SDS011;10132;50.864;5.176;2023-10-31T09:47:29;4.93;;;3.40;;
19940;SDS011;10132;50.864;5.176;2023-10-31T09:49:33;4.97;;;4.07;;
19940;SDS011;10132;50.864;5.176;2023-10-31T09:51:34;5.73;;;3.10;;
19940;SDS011;10132;50.864;5.176;2023-10-31T09:53:37;7.43;;;3.73;;
19940;SDS011;10132;50.864;5.176;2023-10-31T09:55:39;4.57;;;4.17;;
19940;SDS011;10132;50.864;5.176;2023-10-31T09:57:42;5.17;;;4.57;;
19940;SDS011;10132;50.864;5.176;2023-10-31T09:59:45;5.37;;;4.13;;
19940;SDS011;10132;50.864;5.176;2023-10-31T10:01:47;4.53;;;3.40;;
19940;SDS011;10132;50.864;5.176;2023-10-31T10:03:49;5.17;;;4.00;;
19940;SDS011;10132;50.864;5.176;2023-10-31T10:05:51;5.13;;;4.37;;
19940;SDS011;10132;50.864;5.176;2023-10-31T10:07:55;7.17;;;3.43;;
19940;SDS011;10132;50.864;5.176;2023-10-31T10:09:57;3.70;;;3.40;;
19940;SDS011;10132;50.864;5.176;2023-10-31T10:12:00;3.03;;;2.73;;
19940;SDS011;10132;50.864;5.176;2023-10-31T10:14:03;5.10;;;3.43;;
19940;SDS011;10132;50.864;5.176;2023-10-31T10:16:11;3.37;;;3.03;;
19940;SDS011;10132;50.864;5.176;2023-10-31T10:18:23;5.67;;;3.70;;
19940;SDS011;10132;50.864;5.176;2023-10-31T10:20:26;7.57;;;3.10;;
19940;SDS011;10132;50.864;5.176;2023-10-31T10:22:28;8.17;;;2.97;;
19940;SDS011;10132;50.864;5.176;2023-10-31T10:24:30;4.43;;;2.73;;
19940;SDS011;10132;50.864;5.176;2023-10-31T10:26:32;5.40;;;3.00;;
19940;SDS011;10132;50.864;5.176;2023-10-31T10:28:34;4.60;;;2.83;;
19940;SDS011;10132;50.864;5.176;2023-10-31T10:30:37;4.20;;;2.70;;
19940;SDS011;10132;50.864;5.176;2023-10-31T10:32:41;4.13;;;2.43;;
19940;SDS011;10132;50.864;5.176;2023-10-31T10:34:43;9.03;;;3.03;;
19940;SDS011;10132;50.864;5.176;2023-10-31T10:36:47;3.60;;;2.60;;
19940;SDS011;10132;50.864;5.176;2023-10-31T10:38:50;3.50;;;2.90;;
19940;SDS011;10132;50.864;5.176;2023-10-31T10:40:57;4.87;;;2.90;;
19940;SDS011;10132;50.864;5.176;2023-10-31T10:43:01;5.43;;;2.67;;
19940;SDS011;10132;50.864;5.176;2023-10-31T10:45:08;8.07;;;3.27;;
19940;SDS011;10132;50.864;5.176;2023-10-31T10:47:13;3.40;;;2.73;;
19940;SDS011;10132;50.864;5.176;2023-10-31T10:49:17;5.07;;;2.77;;
19940;SDS011;10132;50.864;5.176;2023-10-31T10:51:27;4.63;;;2.97;;
19940;SDS011;10132;50.864;5.176;2023-10-31T10:53:35;4.57;;;3.07;;
19940;SDS011;10132;50.864;5.176;2023-10-31T10:55:47;3.80;;;2.70;;
19940;SDS011;10132;50.864;5.176;2023-10-31T10:57:55;6.47;;;2.97;;
19940;SDS011;10132;50.864;5.176;2023-10-31T11:00:07;6.13;;;2.97;;
19940;SDS011;10132;50.864;5.176;2023-10-31T11:02:12;6.00;;;2.67;;
19940;SDS011;10132;50.864;5.176;2023-10-31T11:04:15;3.70;;;2.70;;
19940;SDS011;10132;50.864;5.176;2023-10-31T11:06:19;5.27;;;2.50;;
19940;SDS011;10132;50.864;5.176;2023-10-31T11:08:21;6.73;;;2.43;;
19940;SDS011;10132;50.864;5.176;2023-10-31T11:10:24;6.50;;;2.70;;
19940;SDS011;10132;50.864;5.176;2023-10-31T11:12:29;6.10;;;2.77;;
19940;SDS011;10132;50.864;5.176;2023-10-31T11:14:31;8.27;;;2.90;;
19940;SDS011;10132;50.864;5.176;2023-10-31T11:16:37;4.93;;;3.10;;
19940;SDS011;10132;50.864;5.176;2023-10-31T11:18:42;4.47;;;2.30;;
19940;SDS011;10132;50.864;5.176;2023-10-31T11:20:46;4.57;;;2.23;;
19940;SDS011;10132;50.864;5.176;2023-10-31T11:22:49;6.00;;;2.83;;
19940;SDS011;10132;50.864;5.176;2023-10-31T11:24:57;4.60;;;2.97;;
19940;SDS011;10132;50.864;5.176;2023-10-31T11:27:01;3.77;;;2.70;;
19940;SDS011;10132;50.864;5.176;2023-10-31T11:29:05;6.30;;;2.67;;
19940;SDS011;10132;50.864;5.176;2023-10-31T11:31:08;6.83;;;2.50;;
19940;SDS011;10132;50.864;5.176;2023-10-31T11:33:13;6.13;;;3.20;;
19940;SDS011;10132;50.864;5.176;2023-10-31T11:35:16;6.37;;;2.63;;
19940;SDS011;10132;50.864;5.176;2023-10-31T11:37:22;8.47;;;2.77;;
19940;SDS011;10132;50.864;5.176;2023-10-31T11:39:26;5.37;;;2.40;;
19940;SDS011;10132;50.864;5.176;2023-10-31T11:41:28;6.93;;;2.73;;
19940;SDS011;10132;50.864;5.176;2023-10-31T11:43:49;7.47;;;2.80;;
19940;SDS011;10132;50.864;5.176;2023-10-31T11:45:52;4.83;;;3.00;;
19940;SDS011;10132;50.864;5.176;2023-10-31T11:47:57;5.20;;;2.60;;
19940;SDS011;10132;50.864;5.176;2023-10-31T11:49:59;6.43;;;2.57;;
19940;SDS011;10132;50.864;5.176;2023-10-31T11:52:02;7.50;;;3.03;;
19940;SDS011;10132;50.864;5.176;2023-10-31T11:54:06;5.40;;;2.50;;
19940;SDS011;10132;50.864;5.176;2023-10-31T11:56:09;4.17;;;2.63;;
19940;SDS011;10132;50.864;5.176;2023-10-31T11:58:14;6.77;;;2.70;;
19940;SDS011;10132;50.864;5.176;2023-10-31T12:00:20;6.73;;;2.80;;
19940;SDS011;10132;50.864;5.176;2023-10-31T12:02:22;8.03;;;2.80;;
19940;SDS011;10132;50.864;5.176;2023-10-31T12:04:25;6.83;;;2.80;;
19940;SDS011;10132;50.864;5.176;2023-10-31T12:06:27;7.20;;;3.23;;